Shakopee, MN

11:27 AM CDT on August 31, 2015 (GMT -0500)
Against the Bluffs | | Change Station
CLOSE
Current Station
Personal Weather Station
Location: Chanhassen, MN
Elevation: 735 ft
Nearby Weather Stations

Elev 735 ft 44.81 °N, 93.54 °W | Updated 8 minutes ago

Mostly Cloudy
Mostly Cloudy
76.0 °F
Feels Like 77 °F
N
3.0
Wind Variable Wind from SW
Gusts 13.0 mph

Today
High -- | Low -- °F
--% Chance of Precip.
Yesterday
High -- | Low -- °F
Precip. -- in
6:34 AM 7:53 PM
Waning Gibbous, 95% visible
Pressure 29.93 in
Visibility 7.0 miles
Clouds Scattered Clouds 1400 ft
Heat Index 77 °F
Dew Point 71 °F
Humidity 84%
Rainfall 0.00 in
Snow Depth Not available.
UV 5 out of 12
Pollen 9.40 out of 12
Air Quality Not available.
Flu Activity Not available.
SPECI KFCM 311613Z 19008KT 7SM SCT014 25/21 A2993 RMK AO2 T02500206
Pressure 29.93 in
Visibility 7.0 miles
Clouds Scattered Clouds 1400 ft
Heat Index 77 °F
Dew Point 71 °F
Humidity 84%
Rainfall 0.00 in
Snow Depth Not available.
UV 5 out of 12
Pollen 9.40 out of 12
Air Quality Not available.
Flu Activity Not available.
SPECI KFCM 311613Z 19008KT 7SM SCT014 25/21 A2993 RMK AO2 T02500206

10-Day Weather Forecast

×

Almanac

Astronomy

Aug. 31, 2015 Rise Set
Actual Time
Civil Twilight
Nautical Twilight
Astronomical Twilight
Moon
Length of Visible Light
Length of Day
Tomorrow will be .
, % of the Moon is Illuminated

Today's Extremes

State Highs State Lows

Community

WunderPhotos

Upload Photos

1,851,302 photos uploaded!

WunderBlogs® & News

Nearby

Air Quality

  Air Quality AQ Index Pollutant
Not available.

Snow Depth

Station Depth Elevation

Earthquake Activity

City Distance Mag. Time & Date
Minimum magnitude displayed is 2.5.

Coastal Water Temperatures

Place Temperature

Stations

Nearby Weather Stations

Station Location Temp. Windchill Dew Point Humidity Wind Precip. Elev Updated Type